createdAt,value
2018-11-02T00:00:20.089Z,16.7
2018-11-02T00:01:30.455Z,16.73
2018-11-02T00:02:40.566Z,16.7
2018-11-02T00:03:50.139Z,16.66
2018-11-02T00:04:59.696Z,16.72
2018-11-02T00:06:09.712Z,16.66
2018-11-02T00:07:20.014Z,16.65
2018-11-02T00:08:30.110Z,16.52
2018-11-02T00:09:39.398Z,16.57
2018-11-02T00:10:49.484Z,16.59
2018-11-02T00:11:59.616Z,16.55
2018-11-02T00:13:09.177Z,16.48
2018-11-02T00:14:19.205Z,16.48
2018-11-02T00:15:30.122Z,16.49
2018-11-02T00:16:40.132Z,16.42
2018-11-02T00:17:49.971Z,16.48
2018-11-02T00:18:59.583Z,16.34
2018-11-02T00:20:09.127Z,16.48
2018-11-02T00:21:18.704Z,16.36
2018-11-02T00:22:28.861Z,16.37
2018-11-02T00:23:38.953Z,16.36
2018-11-02T00:24:48.766Z,16.22
2018-11-02T00:25:58.583Z,16.27
2018-11-02T00:27:08.663Z,16.26
2018-11-02T00:28:18.464Z,16.17
2018-11-02T00:29:28.266Z,16.16
2018-11-02T00:30:38.125Z,16.14
2018-11-02T00:31:48.426Z,16.07
2018-11-02T00:32:58.543Z,16.11
2018-11-02T00:34:08.371Z,16.08
2018-11-02T00:35:18.463Z,16.13
2018-11-02T00:36:28.642Z,16.14
2018-11-02T00:37:39.674Z,16.02
2018-11-02T00:38:49.345Z,15.98
2018-11-02T00:39:58.916Z,15.96
2018-11-02T00:41:09.009Z,15.91
2018-11-02T00:42:18.576Z,15.86
2018-11-02T00:43:28.377Z,15.86
2018-11-02T00:44:37.948Z,15.75
2018-11-02T00:45:48.041Z,15.75
2018-11-02T00:46:57.881Z,15.62
2018-11-02T00:48:07.683Z,15.67
2018-11-02T00:49:17.791Z,15.59
2018-11-02T00:50:27.688Z,15.6
2018-11-02T00:51:37.791Z,15.53
2018-11-02T00:52:47.116Z,15.49
2018-11-02T00:53:56.971Z,15.56
2018-11-02T00:55:07.268Z,15.44
2018-11-02T00:56:18.013Z,15.41
2018-11-02T00:57:28.500Z,15.47
2018-11-02T00:58:38.787Z,15.35
2018-11-02T00:59:49.386Z,15.33
2018-11-02T01:00:58.939Z,15.27
2018-11-02T01:02:09.027Z,15.27
2018-11-02T01:03:18.852Z,15.3
2018-11-02T01:04:28.990Z,15.33
2018-11-02T01:05:39.570Z,15.3
2018-11-02T01:06:49.692Z,15.26
2018-11-02T01:07:59.547Z,15.23
2018-11-02T01:09:09.630Z,15.25
2018-11-02T01:10:19.446Z,15.23
2018-11-02T01:11:29.540Z,15.13
2018-11-02T01:12:39.611Z,15.19
2018-11-02T01:13:49.406Z,15.18
2018-11-02T01:14:59.240Z,15.15
2018-11-02T01:16:09.062Z,15.1
2018-11-02T01:17:19.160Z,15.13
2018-11-02T01:18:29.241Z,15.1
2018-11-02T01:19:39.067Z,15.04
2018-11-02T01:20:49.087Z,15.07
2018-11-02T01:21:58.799Z,15.05
2018-11-02T01:23:09.049Z,15.13
2018-11-02T01:24:18.344Z,15.02
2018-11-02T01:25:27.609Z,15
2018-11-02T01:26:37.440Z,15.04
2018-11-02T01:27:47.027Z,15.01
2018-11-02T01:28:56.940Z,14.87
2018-11-02T01:30:06.819Z,14.87
2018-11-02T01:31:16.361Z,14.86
2018-11-02T01:32:25.938Z,14.9
2018-11-02T01:33:35.779Z,14.9
2018-11-02T01:34:45.598Z,14.9
2018-11-02T01:35:55.688Z,14.82
2018-11-02T01:37:05.660Z,14.75
2018-11-02T01:38:15.752Z,14.71
2018-11-02T01:39:25.309Z,14.63
2018-11-02T01:40:34.855Z,14.63
2018-11-02T01:41:44.677Z,14.67
2018-11-02T01:42:54.801Z,14.69
2018-11-02T01:44:06.159Z,14.69
2018-11-02T01:45:16.328Z,14.7
2018-11-02T01:46:26.629Z,14.56
2018-11-02T01:47:36.702Z,14.63
2018-11-02T01:48:46.542Z,14.61
2018-11-02T01:49:56.090Z,14.59
2018-11-02T01:51:07.813Z,14.51
2018-11-02T01:52:17.915Z,14.53
2018-11-02T01:53:27.733Z,14.45
2018-11-02T01:54:37.532Z,14.48
2018-11-02T01:55:47.387Z,14.42
2018-11-02T01:56:57.485Z,14.38
2018-11-02T01:58:07.292Z,14.39
2018-11-02T01:59:16.849Z,14.33
2018-11-02T02:00:26.922Z,14.36
2018-11-02T02:01:36.740Z,14.36
2018-11-02T02:02:46.822Z,14.26
2018-11-02T02:03:56.965Z,14.19
2018-11-02T02:05:06.852Z,14.28
2018-11-02T02:06:16.454Z,14.21
2018-11-02T02:07:26.701Z,14.19
2018-11-02T02:08:36.773Z,14.2
2018-11-02T02:09:46.329Z,14.19
2018-11-02T02:10:56.484Z,14.12
2018-11-02T02:12:06.628Z,14.15
2018-11-02T02:13:16.985Z,14.02
2018-11-02T02:14:27.117Z,14.05
2018-11-02T02:15:36.969Z,14.03
2018-11-02T02:16:47.030Z,14.06
2018-11-02T02:17:57.121Z,13.97
2018-11-02T02:19:07.473Z,13.97
2018-11-02T02:20:17.567Z,13.94
2018-11-02T02:21:27.112Z,13.93
2018-11-02T02:22:37.180Z,13.88
2018-11-02T02:23:46.756Z,13.87
2018-11-02T02:24:56.578Z,13.91
2018-11-02T02:26:06.477Z,13.88
2018-11-02T02:27:16.533Z,13.91
2018-11-02T02:28:27.870Z,13.95
2018-11-02T02:29:37.985Z,13.94
2018-11-02T02:30:47.801Z,13.86
2018-11-02T02:31:57.639Z,13.86
2018-11-02T02:33:07.755Z,13.88
2018-11-02T02:34:17.833Z,13.87
2018-11-02T02:35:27.648Z,13.84
2018-11-02T02:36:37.732Z,13.9
2018-11-02T02:37:47.584Z,13.75
2018-11-02T02:38:57.425Z,13.84
2018-11-02T02:40:07.240Z,13.84
2018-11-02T02:41:16.523Z,13.79
2018-11-02T02:42:26.062Z,13.78
2018-11-02T02:43:36.174Z,13.78
2018-11-02T02:44:46.290Z,13.78
2018-11-02T02:45:56.434Z,13.83
2018-11-02T02:47:06.515Z,13.79
2018-11-02T02:48:16.336Z,13.73
2018-11-02T02:49:26.505Z,13.72
2018-11-02T02:50:37.348Z,13.73
2018-11-02T02:51:47.693Z,13.76
2018-11-02T02:52:56.964Z,13.68
2018-11-02T02:54:06.763Z,13.58
2018-11-02T02:55:16.633Z,13.68
2018-11-02T02:56:27.775Z,13.63
2018-11-02T02:57:37.582Z,13.6
2018-11-02T02:58:47.422Z,13.58
2018-11-02T02:59:57.305Z,13.55
2018-11-02T03:01:08.935Z,13.55
2018-11-02T03:02:18.766Z,13.7
2018-11-02T03:34:41.771Z,11.15
2018-11-02T03:35:51.871Z,11.09
2018-11-02T03:37:01.986Z,11.1
2018-11-02T03:38:12.089Z,11.13
2018-11-02T03:39:21.621Z,11.12
2018-11-02T03:40:32.043Z,11.28
2018-11-02T03:41:42.720Z,11.27
2018-11-02T03:42:53.040Z,11.34
2018-11-02T03:44:04.732Z,11.41
2018-11-02T03:45:14.596Z,11.46
2018-11-02T03:46:24.471Z,11.51
2018-11-02T03:47:34.625Z,11.61
2018-11-02T03:48:44.504Z,11.63
2018-11-02T03:49:54.597Z,11.79
2018-11-02T03:51:04.722Z,11.81
2018-11-02T03:52:14.959Z,11.98
2018-11-02T03:53:25.054Z,12.03
2018-11-02T03:54:34.889Z,12.13
2018-11-02T03:55:45.594Z,12.26
2018-11-02T03:56:56.428Z,12.29
2018-11-02T03:58:07.189Z,12.34
2018-11-02T03:59:16.824Z,12.47
2018-11-02T04:00:26.415Z,12.53
2018-11-02T04:01:38.460Z,12.63
2018-11-02T04:02:48.620Z,12.69
2018-11-02T04:03:57.919Z,12.89
2018-11-02T04:05:08.480Z,12.92
2018-11-02T04:06:18.562Z,12.99
2018-11-02T04:07:28.673Z,13.02
2018-11-02T04:08:38.818Z,13.09
2018-11-02T04:09:49.407Z,13.16
2018-11-02T04:10:59.574Z,13.1
2018-11-02T04:12:09.679Z,13.14
2018-11-02T04:13:19.839Z,13.19
2018-11-02T04:14:29.666Z,13.19
2018-11-02T04:15:39.276Z,13.21
2018-11-02T04:16:49.399Z,13.27
2018-11-02T04:17:59.229Z,13.28
2018-11-02T04:19:09.093Z,13.27
2018-11-02T04:20:18.898Z,13.27
2018-11-02T04:21:28.720Z,13.27
2018-11-02T04:22:39.051Z,13.44
2018-11-02T04:23:49.685Z,13.36
2018-11-02T04:25:01.248Z,13.32
2018-11-02T04:26:11.077Z,13.31
2018-11-02T04:27:21.152Z,13.37
2018-11-02T04:28:31.271Z,13.36
2018-11-02T04:29:41.221Z,13.45
2018-11-02T04:30:51.556Z,13.37
2018-11-02T04:32:01.624Z,13.37
2018-11-02T04:33:11.778Z,13.36
2018-11-02T04:34:21.652Z,13.47
2018-11-02T04:35:31.517Z,13.36
2018-11-02T04:36:41.632Z,13.39
2018-11-02T04:37:51.732Z,13.47
2018-11-02T04:39:03.833Z,13.45
2018-11-02T04:40:13.923Z,13.51
2018-11-02T04:41:24.075Z,13.4
2018-11-02T04:42:33.911Z,13.36
2018-11-02T04:43:44.264Z,13.39
2018-11-02T04:44:55.235Z,13.32
2018-11-02T04:46:05.732Z,13.36
2018-11-02T04:47:15.562Z,13.4
2018-11-02T04:48:25.657Z,13.37
2018-11-02T04:49:35.778Z,13.35
2018-11-02T04:50:45.732Z,13.36
2018-11-02T04:51:55.325Z,13.35
2018-11-02T04:53:05.551Z,13.4
2018-11-02T04:54:15.676Z,13.42
2018-11-02T04:55:25.529Z,13.35
2018-11-02T04:56:35.628Z,13.36
2018-11-02T04:57:45.738Z,13.31
2018-11-02T04:58:55.310Z,13.45
2018-11-02T05:00:05.569Z,13.35
2018-11-02T05:01:15.370Z,13.35
2018-11-02T05:02:25.548Z,13.32
2018-11-02T05:03:35.766Z,13.31
2018-11-02T05:04:46.071Z,13.19
2018-11-02T05:05:56.510Z,13.31
2018-11-02T05:07:06.796Z,13.21
2018-11-02T05:08:16.628Z,13.17
2018-11-02T05:09:26.458Z,13.11
2018-11-02T05:10:36.574Z,13.09
2018-11-02T05:11:45.870Z,13.1
2018-11-02T05:12:55.689Z,13.03
2018-11-02T05:14:05.408Z,13.01
2018-11-02T05:15:15.504Z,12.98
2018-11-02T05:16:25.614Z,12.86
2018-11-02T05:17:35.734Z,12.86
2018-11-02T05:18:45.038Z,12.84
2018-11-02T05:19:55.246Z,12.89
2018-11-02T05:21:04.927Z,12.81
2018-11-02T05:22:15.177Z,12.91
2018-11-02T05:23:25.055Z,12.92
2018-11-02T05:24:35.234Z,12.91
2018-11-02T05:25:45.345Z,12.8
2018-11-02T05:26:55.761Z,12.86
2018-11-02T05:28:06.657Z,12.8
2018-11-02T05:29:17.196Z,12.77
2018-11-02T05:30:27.076Z,12.81
2018-11-02T05:31:36.908Z,12.76
2018-11-02T05:32:46.730Z,12.77
2018-11-02T05:33:56.034Z,12.69
2018-11-02T05:35:06.171Z,12.63
2018-11-02T05:36:15.992Z,12.63
2018-11-02T05:37:25.551Z,12.61
2018-11-02T05:38:35.762Z,12.65
2018-11-02T05:39:45.938Z,12.61
2018-11-02T05:40:55.239Z,12.58
2018-11-02T05:42:05.349Z,12.58
2018-11-02T05:43:15.230Z,12.58
2018-11-02T05:44:25.312Z,12.59
2018-11-02T05:45:35.440Z,12.62
2018-11-02T05:46:44.992Z,12.62
2018-11-02T05:47:54.818Z,12.52
2018-11-02T05:49:07.544Z,12.58
2018-11-02T05:50:19.519Z,12.56
2018-11-02T05:51:29.244Z,12.61
2018-11-02T05:52:38.832Z,12.58
2018-11-02T05:53:48.731Z,12.61
2018-11-02T05:54:58.606Z,12.59
2018-11-02T05:56:08.441Z,12.61
2018-11-02T05:57:18.528Z,12.65
2018-11-02T05:58:28.710Z,12.62
2018-11-02T05:59:38.275Z,12.61
2018-11-02T06:00:48.135Z,12.59
2018-11-02T06:01:58.241Z,12.66
2018-11-02T06:03:08.424Z,12.59
2018-11-02T06:04:17.982Z,12.7
2018-11-02T06:05:27.807Z,12.73
2018-11-02T06:06:37.465Z,12.73
2018-11-02T06:07:47.824Z,12.83
2018-11-02T06:08:57.139Z,12.8
2018-11-02T06:10:06.968Z,12.71
2018-11-02T06:11:16.623Z,12.74
2018-11-02T06:12:27.548Z,12.66
2018-11-02T06:13:37.885Z,12.73
2018-11-02T06:14:48.022Z,12.7
2018-11-02T06:15:57.888Z,12.86
2018-11-02T06:17:07.746Z,12.88
2018-11-02T06:18:17.897Z,12.88
2018-11-02T06:19:27.748Z,12.94
2018-11-02T06:20:37.037Z,13.06
2018-11-02T06:21:46.856Z,13.06
2018-11-02T06:22:56.966Z,13.09
2018-11-02T06:24:07.442Z,13.13
2018-11-02T06:25:16.706Z,13.17
2018-11-02T06:26:26.797Z,13.21
2018-11-02T06:27:36.920Z,13.27
2018-11-02T06:28:47.037Z,13.39
2018-11-02T06:29:57.164Z,13.32
2018-11-02T06:31:06.736Z,13.51
2018-11-02T06:32:16.293Z,13.42
2018-11-02T06:33:26.131Z,13.58
2018-11-02T06:34:37.105Z,13.65
2018-11-02T06:35:47.567Z,13.68
2018-11-02T06:36:57.686Z,13.68
2018-11-02T06:38:07.767Z,13.83
2018-11-02T06:39:17.359Z,13.81
2018-11-02T06:40:26.926Z,13.88
2018-11-02T06:41:36.817Z,13.95
2018-11-02T06:42:46.923Z,14.03
2018-11-02T06:43:57.042Z,14.05
2018-11-02T06:45:07.824Z,14.13
2018-11-02T06:46:18.153Z,14.19
2018-11-02T06:47:28.246Z,14.21
2018-11-02T06:48:38.092Z,14.15
2018-11-02T06:49:47.957Z,14.21
2018-11-02T06:50:58.049Z,14.33
2018-11-02T06:52:08.193Z,14.38
2018-11-02T06:53:18.077Z,14.39
2018-11-02T06:54:27.952Z,14.52
2018-11-02T06:55:39.053Z,14.53
2018-11-02T06:56:48.747Z,14.57
2018-11-02T06:57:58.891Z,14.67
2018-11-02T06:59:11.393Z,14.69
2018-11-02T07:00:21.821Z,14.74
2018-11-02T07:01:32.536Z,14.89
2018-11-02T07:02:42.621Z,14.87
2018-11-02T07:03:52.480Z,14.89
2018-11-02T07:05:02.319Z,15
2018-11-02T07:06:12.182Z,15.1
2018-11-02T07:07:22.645Z,15.18
2018-11-02T07:08:33.407Z,15.1
2018-11-02T07:09:43.295Z,15.19
2018-11-02T07:10:53.398Z,15.33
2018-11-02T07:12:03.233Z,15.33
2018-11-02T07:13:13.360Z,15.51
2018-11-02T07:14:23.552Z,15.58
2018-11-02T07:15:34.342Z,15.63
2018-11-02T07:16:44.817Z,15.67
2018-11-02T07:17:54.385Z,15.83
2018-11-02T07:19:04.508Z,15.81
2018-11-02T07:20:14.642Z,15.88
2018-11-02T07:21:24.476Z,15.86
2018-11-02T07:22:34.046Z,15.86
2018-11-02T07:23:44.173Z,15.95
2018-11-02T07:24:54.175Z,15.92
2018-11-02T07:26:04.492Z,15.95
2018-11-02T07:27:14.322Z,15.96
2018-11-02T07:28:24.490Z,16.04
2018-11-02T07:29:33.528Z,16.08
2018-11-02T07:30:43.673Z,15.99
2018-11-02T07:31:53.506Z,16.17
2018-11-02T07:33:05.276Z,16.22
2018-11-02T07:34:15.462Z,16.33
2018-11-02T07:35:25.959Z,16.47
2018-11-02T07:36:37.121Z,16.55
2018-11-02T07:37:47.259Z,16.57
2018-11-02T07:38:57.368Z,16.58
2018-11-02T07:40:07.815Z,16.63
2018-11-02T07:41:17.672Z,16.7
2018-11-02T07:42:27.570Z,16.8
2018-11-02T07:43:37.420Z,16.87
2018-11-02T07:44:47.263Z,16.88
2018-11-02T07:45:57.077Z,17
2018-11-02T07:47:07.221Z,17.03
2018-11-02T07:48:16.845Z,17.05
2018-11-02T07:49:27.242Z,17.03
2018-11-02T07:50:37.019Z,17.18
2018-11-02T07:51:47.120Z,17.24
2018-11-02T07:52:57.376Z,17.28
2018-11-02T07:54:07.177Z,17.35
2018-11-02T07:55:16.741Z,17.32
2018-11-02T07:56:27.007Z,17.46
2018-11-02T07:57:37.965Z,17.6
2018-11-02T07:58:48.304Z,17.5
2018-11-02T07:59:57.615Z,17.65
2018-11-02T08:01:07.298Z,17.66
2018-11-02T08:02:17.214Z,17.86
2018-11-02T08:03:27.350Z,18.01
2018-11-02T08:04:37.530Z,18.1
2018-11-02T08:05:47.110Z,18.11
2018-11-02T08:06:56.930Z,18.19
2018-11-02T08:08:07.055Z,18.14
2018-11-02T08:09:17.157Z,18.19
2018-11-02T08:10:26.718Z,18.17
2018-11-02T08:11:36.270Z,18.34
2018-11-02T08:12:46.867Z,18.24
2018-11-02T08:13:56.973Z,18.31
2018-11-02T08:15:07.096Z,18.41
2018-11-02T08:16:16.927Z,18.44
2018-11-02T08:17:27.145Z,18.47
2018-11-02T08:18:37.550Z,18.49
2018-11-02T08:19:47.424Z,18.68
2018-11-02T08:20:57.286Z,18.63
2018-11-02T08:22:07.105Z,18.71
2018-11-02T08:23:16.392Z,18.66
2018-11-02T08:24:26.322Z,18.75
2018-11-02T08:25:36.743Z,18.75
2018-11-02T08:26:46.807Z,18.68
2018-11-02T08:27:56.893Z,18.76
2018-11-02T08:29:06.710Z,18.72
2018-11-02T08:30:16.257Z,18.59
2018-11-02T08:31:26.100Z,18.47
2018-11-02T08:32:36.165Z,18.45
2018-11-02T08:33:46.005Z,18.39
2018-11-02T08:34:55.568Z,18.2
2018-11-02T08:36:05.740Z,18.23
2018-11-02T08:37:15.557Z,18.14
2018-11-02T08:38:25.636Z,18.06
2018-11-02T08:39:35.710Z,18.03
2018-11-02T08:40:45.525Z,17.99
2018-11-02T08:41:55.627Z,17.94
2018-11-02T08:43:07.828Z,18.05
2018-11-02T08:44:17.398Z,18.06
2018-11-02T08:45:27.495Z,18.2
2018-11-02T08:46:37.597Z,18.16
2018-11-02T08:47:47.853Z,18.35
2018-11-02T08:48:57.924Z,18.42
2018-11-02T08:50:10.617Z,18.57
2018-11-02T08:51:20.692Z,18.76
2018-11-02T08:52:30.600Z,18.93
2018-11-02T08:53:40.402Z,19.05
2018-11-02T08:54:50.222Z,18.94
2018-11-02T08:55:59.791Z,19.07
2018-11-02T08:57:09.881Z,19.23
2018-11-02T08:58:20.803Z,19.3
2018-11-02T08:59:32.246Z,19.34
2018-11-02T09:00:42.617Z,19.46
2018-11-02T09:01:52.415Z,19.57
2018-11-02T09:03:02.251Z,19.5
2018-11-02T09:04:11.818Z,19.57
2018-11-02T09:05:21.650Z,19.56
2018-11-02T09:06:31.549Z,19.61
2018-11-02T09:07:41.637Z,19.64
2018-11-02T09:08:51.238Z,19.79
2018-11-02T09:10:03.383Z,19.89
2018-11-02T09:11:13.497Z,19.97
2018-11-02T09:12:23.735Z,20.08
2018-11-02T09:13:33.561Z,20.01
2018-11-02T09:14:43.126Z,20.11
2018-11-02T09:15:52.963Z,20.11
2018-11-02T09:17:03.052Z,20.12
2018-11-02T09:18:13.129Z,20.12
2018-11-02T09:19:22.497Z,20.1
2018-11-02T09:20:32.751Z,20.26
2018-11-02T09:21:42.592Z,20.23
2018-11-02T09:22:52.670Z,20.29
2018-11-02T09:24:02.772Z,20.27
2018-11-02T09:25:12.344Z,20.26
2018-11-02T09:26:22.468Z,20.37
2018-11-02T09:27:31.877Z,20.35
2018-11-02T09:28:42.379Z,20.49
2018-11-02T09:29:52.504Z,20.48
2018-11-02T09:31:03.748Z,20.49
2018-11-02T09:32:13.817Z,20.53
2018-11-02T09:33:23.912Z,20.53
2018-11-02T09:34:34.023Z,20.48
2018-11-02T09:35:43.884Z,20.63
2018-11-02T09:36:53.760Z,20.71
2018-11-02T09:38:03.618Z,20.68
2018-11-02T09:39:13.725Z,20.63
2018-11-02T09:40:24.258Z,20.68
2018-11-02T09:41:34.818Z,20.82
2018-11-02T09:42:45.265Z,20.79
2018-11-02T09:43:55.574Z,20.82
2018-11-02T09:45:06.693Z,20.96
2018-11-02T09:46:16.043Z,21.01
2018-11-02T09:47:25.951Z,21.06
2018-11-02T09:48:35.797Z,21.13
2018-11-02T09:49:45.668Z,21.13
2018-11-02T09:50:55.512Z,21.15
2018-11-02T09:52:06.981Z,21.16
2018-11-02T09:53:18.152Z,21.11
2018-11-02T09:54:28.010Z,21.16
2018-11-02T09:55:38.118Z,21.19
2018-11-02T09:56:48.275Z,21.16
2018-11-02T09:57:58.684Z,21.21
2018-11-02T09:59:10.370Z,21.21
2018-11-02T10:00:20.494Z,21.31
2018-11-02T10:01:30.423Z,21.37
2018-11-02T10:02:40.537Z,21.37
2018-11-02T10:03:50.664Z,21.43
2018-11-02T10:05:00.527Z,21.45
2018-11-02T10:06:10.753Z,21.43
2018-11-02T10:07:20.353Z,21.48
2018-11-02T10:08:30.041Z,21.53
2018-11-02T10:09:39.746Z,21.53
2018-11-02T10:10:49.889Z,21.48
2018-11-02T10:12:00.051Z,21.62
2018-11-02T10:13:10.169Z,21.53
2018-11-02T10:14:21.459Z,21.62
2018-11-02T10:15:31.807Z,21.64
2018-11-02T10:16:41.144Z,21.62
2018-11-02T10:17:50.794Z,21.61
2018-11-02T10:19:00.941Z,21.55
2018-11-02T10:20:11.159Z,21.61
2018-11-02T10:21:20.756Z,21.71
2018-11-02T10:22:30.943Z,21.7
2018-11-02T10:23:40.518Z,21.77
2018-11-02T10:24:50.848Z,21.82
2018-11-02T10:26:00.716Z,21.78
2018-11-02T10:27:10.280Z,21.82
2018-11-02T10:28:19.905Z,21.85
2018-11-02T10:29:30.326Z,21.94
2018-11-02T10:30:40.178Z,22.02
2018-11-02T10:31:50.046Z,22.05
2018-11-02T10:32:59.979Z,22.15
2018-11-02T10:34:09.880Z,22.14
2018-11-02T10:35:19.883Z,22.11
2018-11-02T10:36:30.469Z,22.08
2018-11-02T10:37:41.509Z,22.11
2018-11-02T10:38:51.677Z,22.27
2018-11-02T10:40:03.276Z,22.26
2018-11-02T10:41:13.114Z,22.3
2018-11-02T10:42:23.262Z,22.44
2018-11-02T10:43:33.136Z,22.41
2018-11-02T10:44:43.698Z,22.48
2018-11-02T10:45:53.882Z,22.54
2018-11-02T10:47:03.889Z,22.51
2018-11-02T10:48:13.765Z,22.52
2018-11-02T10:49:24.314Z,22.6
2018-11-02T10:50:34.838Z,22.59
2018-11-02T10:51:44.773Z,22.61
2018-11-02T10:52:54.649Z,22.64
2018-11-02T10:54:05.072Z,22.61
2018-11-02T10:55:14.932Z,22.6
2018-11-02T10:56:25.246Z,22.63
2018-11-02T10:57:34.743Z,22.7
2018-11-02T10:58:45.350Z,22.71
2018-11-02T10:59:56.656Z,22.78
2018-11-02T11:01:08.094Z,22.81
2018-11-02T11:02:18.293Z,22.73
2018-11-02T11:03:28.177Z,22.7
2018-11-02T11:04:38.334Z,22.67
2018-11-02T11:05:48.479Z,22.69
2018-11-02T11:06:58.347Z,22.7
2018-11-02T11:08:09.024Z,22.71
2018-11-02T11:09:19.214Z,22.84
2018-11-02T11:10:29.089Z,22.78
2018-11-02T11:11:39.727Z,22.89
2018-11-02T11:12:51.804Z,22.92
2018-11-02T11:14:02.496Z,22.89
2018-11-02T11:15:12.352Z,22.91
2018-11-02T11:16:22.476Z,22.89
2018-11-02T11:17:32.338Z,22.86
2018-11-02T11:18:42.498Z,22.89
2018-11-02T11:19:52.473Z,23
2018-11-02T11:21:02.813Z,22.96
2018-11-02T11:22:13.317Z,23.07
2018-11-02T11:23:22.967Z,23.16
2018-11-02T11:24:33.106Z,23.09
2018-11-02T11:25:43.224Z,23.09
2018-11-02T11:26:52.840Z,23.06
2018-11-02T11:28:03.305Z,23.07
2018-11-02T11:29:13.525Z,23.19
2018-11-02T11:30:23.269Z,23.15
2018-11-02T11:31:33.424Z,23.21
2018-11-02T11:32:43.291Z,23.19
2018-11-02T11:33:53.432Z,23.25
2018-11-02T11:35:02.729Z,23.21
2018-11-02T11:36:12.630Z,23.24
2018-11-02T11:37:22.911Z,23.28
2018-11-02T11:38:32.777Z,23.28
2018-11-02T11:39:42.528Z,23.34
2018-11-02T11:40:52.803Z,23.25
2018-11-02T11:42:02.720Z,23.26
2018-11-02T11:43:12.637Z,23.22
2018-11-02T11:44:23.138Z,23.22
2018-11-02T11:45:33.711Z,23.21
2018-11-02T11:46:43.605Z,23.18
2018-11-02T11:47:53.747Z,23.21
2018-11-02T11:49:05.389Z,23.26
2018-11-02T11:50:15.760Z,23.28
2018-11-02T11:51:25.627Z,23.32
2018-11-02T11:52:34.988Z,23.25
2018-11-02T11:53:45.198Z,23.37
2018-11-02T11:54:55.054Z,23.03
2018-11-02T11:56:04.898Z,22.81
2018-11-02T11:57:14.794Z,22.61
2018-11-02T11:58:24.654Z,22.27
2018-11-02T11:59:34.814Z,22.27
2018-11-02T12:00:44.397Z,22.12
2018-11-02T12:01:54.539Z,21.97
2018-11-02T12:03:04.683Z,21.82
2018-11-02T12:04:15.137Z,21.74
2018-11-02T12:05:25.141Z,21.58
2018-11-02T12:06:34.474Z,21.67
2018-11-02T12:07:44.406Z,21.59
2018-11-02T12:08:54.518Z,21.58
2018-11-02T12:10:05.641Z,21.59
2018-11-02T12:11:15.287Z,21.53
2018-11-02T12:12:25.152Z,21.53
2018-11-02T12:13:35.315Z,21.46
2018-11-02T12:14:45.192Z,21.38
2018-11-02T12:15:55.020Z,21.31
2018-11-02T12:17:06.521Z,21.27
2018-11-02T12:18:16.188Z,21.16
2018-11-02T12:19:26.036Z,21.16
2018-11-02T12:20:35.905Z,21.11
2018-11-02T12:21:46.319Z,21.08
2018-11-02T12:22:56.781Z,20.93
2018-11-02T12:24:06.669Z,20.96
2018-11-02T12:25:16.542Z,20.85
2018-11-02T12:26:26.724Z,20.85
2018-11-02T12:27:36.372Z,20.79
2018-11-02T12:28:46.528Z,20.88
2018-11-02T12:29:57.932Z,20.78
2018-11-02T12:31:07.907Z,20.82
2018-11-02T12:32:17.490Z,20.85
2018-11-02T12:33:27.425Z,20.88
2018-11-02T12:34:37.542Z,20.94
2018-11-02T12:35:47.665Z,21.01
2018-11-02T12:36:57.788Z,21.22
2018-11-02T12:38:08.274Z,21.37
2018-11-02T12:39:18.129Z,21.56
2018-11-02T12:40:28.144Z,21.97
2018-11-02T12:41:37.865Z,22.24
2018-11-02T12:42:48.012Z,22.51
2018-11-02T12:43:57.872Z,22.67
2018-11-02T12:45:08.095Z,22.7
2018-11-02T12:46:17.965Z,22.67
2018-11-02T12:47:28.090Z,22.71
2018-11-02T12:48:38.755Z,22.73
2018-11-02T12:49:51.697Z,22.7
2018-11-02T12:51:03.242Z,22.69
2018-11-02T12:52:13.392Z,22.44
2018-11-02T12:53:23.239Z,22.29
2018-11-02T12:54:33.385Z,22.11
2018-11-02T12:55:43.525Z,21.94
2018-11-02T12:56:53.664Z,21.82
2018-11-02T12:58:03.532Z,21.73
2018-11-02T12:59:13.560Z,21.62
2018-11-02T13:00:23.748Z,21.59
2018-11-02T13:01:33.067Z,21.58
2018-11-02T13:02:43.255Z,21.7
2018-11-02T13:03:53.384Z,21.7
2018-11-02T13:05:04.528Z,21.7
2018-11-02T13:06:14.423Z,21.86
2018-11-02T13:07:24.629Z,21.94
2018-11-02T13:08:34.759Z,22.04
2018-11-02T13:09:44.762Z,21.99
2018-11-02T13:10:54.633Z,22.15
2018-11-02T13:12:05.530Z,22.18
2018-11-02T13:13:15.731Z,22.22
2018-11-02T13:14:25.585Z,22.29
2018-11-02T13:15:35.465Z,22.23
2018-11-02T13:16:45.770Z,22.29
2018-11-02T13:17:55.639Z,22.34
2018-11-02T13:19:06.308Z,22.34
2018-11-02T13:20:16.985Z,22.44
2018-11-02T13:21:27.564Z,22.49
2018-11-02T13:22:37.834Z,22.52
2018-11-02T13:23:47.990Z,22.46
2018-11-02T13:24:57.882Z,22.34
2018-11-02T13:26:08.912Z,22.31
2018-11-02T13:27:19.400Z,22.3
2018-11-02T13:28:29.255Z,22.34
2018-11-02T13:29:39.489Z,22.34
2018-11-02T13:30:49.428Z,22.42
2018-11-02T13:32:00.522Z,22.51
2018-11-02T13:33:11.265Z,22.6
2018-11-02T13:34:21.139Z,22.48
2018-11-02T13:35:31.031Z,22.64
2018-11-02T13:36:41.608Z,22.45
2018-11-02T13:37:51.373Z,22.26
2018-11-02T13:39:00.951Z,22.27
2018-11-02T13:40:11.105Z,22.27
2018-11-02T13:41:20.686Z,22.23
2018-11-02T13:42:30.282Z,22.2
2018-11-02T13:43:40.754Z,22.12
2018-11-02T13:44:50.903Z,22.16
2018-11-02T13:46:01.380Z,22.09
2018-11-02T13:47:10.981Z,21.92
2018-11-02T13:48:20.823Z,21.97
2018-11-02T13:49:30.433Z,21.93
2018-11-02T13:50:40.757Z,21.92
2018-11-02T13:51:50.343Z,21.76
2018-11-02T13:53:00.593Z,21.7
2018-11-02T13:54:11.888Z,21.59
2018-11-02T13:55:22.190Z,21.62
2018-11-02T13:56:32.314Z,21.53
2018-11-02T13:57:42.220Z,21.53
2018-11-02T13:58:52.498Z,21.41
2018-11-02T14:00:02.363Z,21.4
2018-11-02T14:01:13.023Z,21.25
2018-11-02T14:02:23.176Z,21.19
2018-11-02T14:03:33.326Z,21.08
2018-11-02T14:04:43.233Z,21.08
2018-11-02T14:05:53.095Z,21.09
2018-11-02T14:07:02.951Z,21.15
2018-11-02T14:08:12.818Z,21.18
2018-11-02T14:09:22.507Z,21.18
2018-11-02T14:10:32.408Z,21.23
2018-11-02T14:11:42.014Z,21.36
2018-11-02T14:12:52.812Z,21.4
2018-11-02T14:14:02.403Z,21.48
2018-11-02T14:15:12.947Z,21.52
2018-11-02T14:16:23.680Z,21.52
2018-11-02T14:17:53.169Z,21.59
2018-11-02T14:19:03.067Z,21.55
2018-11-02T14:20:12.955Z,21.66
2018-11-02T14:21:22.812Z,21.61
2018-11-02T14:22:32.661Z,21.74
2018-11-02T14:23:42.900Z,21.8
2018-11-02T14:24:53.016Z,21.8
2018-11-02T14:26:05.222Z,21.94
2018-11-02T14:27:15.126Z,21.99
2018-11-02T14:28:25.297Z,22.12
2018-11-02T14:29:35.930Z,22.16
2018-11-02T14:30:46.690Z,22.24
2018-11-02T14:31:57.866Z,22.34
2018-11-02T14:33:08.743Z,22.38
2018-11-02T14:34:18.866Z,22.33
2018-11-02T14:35:28.769Z,22.26
2018-11-02T14:36:38.926Z,22.14
2018-11-02T14:37:48.804Z,22.16
2018-11-02T14:38:58.941Z,21.97
2018-11-02T14:40:11.061Z,21.97
2018-11-02T14:41:21.146Z,21.83
2018-11-02T14:42:31.219Z,21.73
2018-11-02T14:43:41.373Z,21.73
2018-11-02T14:44:51.244Z,21.71
2018-11-02T14:46:01.401Z,21.7
2018-11-02T14:47:11.538Z,21.67
2018-11-02T14:48:21.131Z,21.51
2018-11-02T14:49:31.305Z,21.52
2018-11-02T14:50:41.445Z,21.4
2018-11-02T14:51:51.365Z,21.45
2018-11-02T14:53:02.217Z,21.33
2018-11-02T14:54:12.850Z,21.27
2018-11-02T14:55:23.061Z,21.22
2018-11-02T14:56:33.230Z,21.13
2018-11-02T14:57:43.390Z,21.12
2018-11-02T14:58:53.577Z,20.96
2018-11-02T15:00:06.692Z,20.96
2018-11-02T15:01:16.822Z,20.82
2018-11-02T15:02:26.787Z,20.81
2018-11-02T15:03:36.674Z,20.72
2018-11-02T15:04:46.556Z,20.63
2018-11-02T15:05:56.681Z,20.61
2018-11-02T15:07:06.919Z,20.58
2018-11-02T15:08:16.900Z,20.44
2018-11-02T15:09:26.910Z,20.38
2018-11-02T15:10:36.769Z,20.46
2018-11-02T15:11:46.615Z,20.37
2018-11-02T15:12:56.505Z,20.42
2018-11-02T15:14:06.663Z,20.26
2018-11-02T15:15:17.570Z,20.3
2018-11-02T15:16:27.802Z,20.27
2018-11-02T15:17:38.020Z,20.23
2018-11-02T15:18:48.172Z,20.26
2018-11-02T15:19:58.356Z,20.19
2018-11-02T15:21:10.706Z,20.2
2018-11-02T15:22:20.564Z,20.29
2018-11-02T15:23:30.726Z,20.1
2018-11-02T15:24:40.957Z,20.12
2018-11-02T15:25:51.119Z,20.12
2018-11-02T15:27:01.405Z,20.16
2018-11-02T15:28:11.543Z,20
2018-11-02T15:29:21.121Z,20.11
2018-11-02T15:30:31.265Z,20.04
2018-11-02T15:31:41.115Z,19.98
2018-11-02T15:32:50.696Z,19.9
2018-11-02T15:34:01.351Z,19.92
2018-11-02T15:35:11.216Z,19.79
2018-11-02T15:36:21.661Z,19.74
2018-11-02T15:37:32.884Z,19.63